Observations for CHERBOURG MAUPERTUS, France (LFRC)

LFRC 242030Z AUTO 24020KT 9999 OVC009 12/10 Q1013   
LFRC 242000Z AUTO 24018KT 9999 OVC010 12/10 Q1013   
LFRC 241930Z AUTO 25016KT 9999 OVC017 12/10 Q1013   
LFRC 241900Z AUTO 23013KT 9999 BKN021 OVC037 11/10 Q1013
LFRC 241830Z AUTO 23014KT 4400 -RA BR FEW008 BKN026 BKN033 12/10 Q1014  
LFRC 241800Z AUTO 25017KT 8000 2300 -RA FEW008 SCT013 OVC043 12/10 Q1014
LFRC 241730Z AUTO 24014KT 9999 BKN030 OVC038 13/09 Q1014 TEMPO 3000 RADZ BR BKN003 BECMG 25016G30KT 
LFRC 241700Z AUTO 24014KT 9999 OVC033 14/10 Q1014 TEMPO 3000 RADZ BR BKN003 BECMG 25016G30KT
LFRC 241630Z AUTO 23013KT 9999 FEW016 OVC031 14/11 Q1014 TEMPO 3000 RADZ BR BKN003 BECMG 25016G30KT 
LFRC 241600Z AUTO 23013KT 9999 SCT009 OVC017 13/11 Q1015 TEMPO BKN005   
LFRC 241530Z AUTO 25014KT 220V280 9999 OVC013 13/10 Q1015 TEMPO BKN005  
LFRC 241500Z AUTO 22012KT 9999 BKN010 OVC015 14/11 Q1015 NOSIG  
LFRC 241430Z AUTO 21011KT 9999 OVC007 13/11 Q1016 NOSIG 
LFRC 241400Z AUTO 21010KT 7000 OVC005 12/11 Q1016 NOSIG 
LFRC 241330Z AUTO 21011KT 4500 BR OVC005 12/11 Q1017 BECMG 9999 NSW 
LFRC 241300Z AUTO 22011KT 3500 -DZ BR BKN005 OVC009 12/11 Q1017 BECMG 9999 NSW  
LFRC 241230Z AUTO 22015KT 9999 OVC007 13/11 Q1017 NOSIG 
LFRC 241200Z AUTO 22014KT 9999 OVC008 13/10 Q1017 NOSIG 
LFRC 241130Z AUTO 22013KT 190V270 9999 OVC007 13/10 Q1018 NOSIG 
LFRC 241100Z AUTO 23012KT 200V270 9999 OVC006 12/10 Q1018 TEMPO 4000 RADZ BECMG BKN015  
LFRC 241030Z AUTO 23014KT 9999 OVC006 12/10 Q1018 TEMPO 4000 RADZ BECMG BKN015  
LFRC 241000Z AUTO 23011KT 9999 BKN005 OVC010 12/10 Q1019 TEMPO 4000 RADZ
LFRC 240930Z AUTO 24013KT 9999 OVC004 12/10 Q1019 TEMPO 4000 RADZ   
LFRC 240900Z AUTO 24011KT 9999 OVC004 11/10 Q1019 TEMPO 4000 RADZ   
LFRC 240830Z AUTO 24014KT 8000 OVC004 11/10 Q1018 TEMPO 4000 RADZ   
LFRC 240800Z AUTO 23011KT 9999 OVC004 11/10 Q1018 TEMPO 2000 RADZ BR
LFRC 240730Z AUTO 24010KT 210V270 5000 BR OVC004 10/10 Q1019 TEMPO 2000 RADZ BR 
LFRC 240700Z AUTO 26010KT 3900 BR OVC003 10/09 Q1019 TEMPO 2000 RADZ BR 
LFRC 240630Z AUTO 25012KT 2700 BR OVC003 10/09 Q1018 TEMPO RADZ 
LFRC 240600Z AUTO 25011KT 2100 BR OVC003 10/09 Q1018 TEMPO RADZ 
LFRC 240530Z AUTO 25010KT 210V270 1900 BR OVC002 09/09 Q1018 TEMPO 4000 RADZ
LFRC 240500Z AUTO 25012KT 2700 BR OVC003 09/09 Q1018
LFRC 240430Z AUTO 25013KT 3700 BR OVC003 09/09 Q1018
LFRC 240400Z AUTO 25011KT 5000 BR OVC003 09/09 Q1018
LFRC 240330Z AUTO 25011KT 7000 OVC005 09/08 Q1018   
LFRC 240300Z AUTO 25013KT 9000 OVC004 09/08 Q1018   
LFRC 240230Z AUTO 25013KT 8000 OVC005 09/08 Q1018   
LFRC 240200Z AUTO 25015KT 9999 BKN009 OVC015 10/08 Q1018
LFRC 240130Z AUTO 25014KT 9999 BKN015 OVC021 10/07 Q1018
LFRC 240100Z AUTO 24012KT 9999 OVC019 09/07 Q1019   
LFRC 240030Z AUTO 25013KT 9999 BKN020 09/07 Q1019   
LFRC 240000Z AUTO 25013KT CAVOK 09/06 Q1019 
LFRC 232330Z AUTO 25012KT CAVOK 09/06 Q1019 
LFRC 232300Z AUTO 25013KT CAVOK 09/05 Q1019 
LFRC 232230Z AUTO 26013KT CAVOK 09/05 Q1020 
LFRC 232200Z AUTO 26011KT CAVOK 09/05 Q1020 
LFRC 232130Z AUTO 26012KT CAVOK 09/05 Q1020 
LFRC 232100Z AUTO 25010KT CAVOK 09/05 Q1020 
LFRC 232030Z AUTO 26012KT CAVOK 09/05 Q1020 
LFRC 232000Z AUTO 27010KT CAVOK 09/05 Q1020